Time;durP1;ratioP1;P1;durP2;ratioP2;P2;SDS_P1;SDS_P2;PMS_P1;PMS_P2;Temp;Humidity;BMP_temperature;BMP_pressure;BME280_temperature;BME280_humidity;BME280_pressure;Samples;Min_cycle;Max_cycle;Signal;HPM_P1;HPM_P2
2023/07/28 00:00:29;;;;;;;249.07;15.63;;;15.70;99.90;;;;;;5071596;28;20036;-85
2023/07/28 00:02:55;;;;;;;58.15;7.72;;;15.70;99.90;;;;;;5072497;28;20035;-86
2023/07/28 00:05:20;;;;;;;74.03;7.88;;;15.70;99.90;;;;;;5053903;28;20520;-86
2023/07/28 00:07:46;;;;;;;60.50;7.28;;;15.70;99.90;;;;;;5068187;28;20240;-86
2023/07/28 00:10:12;;;;;;;164.35;11.90;;;15.70;99.90;;;;;;5051591;28;20024;-85
2023/07/28 00:12:38;;;;;;;71.10;7.45;;;15.70;99.90;;;;;;5056901;28;20020;-86
2023/07/28 00:15:04;;;;;;;56.13;7.53;;;15.60;99.90;;;;;;5053002;28;20170;-84
2023/07/28 00:17:30;;;;;;;37.42;6.40;;;15.60;99.90;;;;;;5052236;28;20079;-84
2023/07/28 00:19:56;;;;;;;15.73;7.00;;;15.60;99.90;;;;;;5063093;28;20032;-85
2023/07/28 00:22:22;;;;;;;51.92;8.68;;;15.60;99.90;;;;;;5071809;28;20029;-85
2023/07/28 00:24:48;;;;;;;6.63;5.97;;;15.70;99.90;;;;;;5056595;28;20083;-84
2023/07/28 00:27:14;;;;;;;43.75;8.15;;;15.60;99.90;;;;;;5070505;28;20037;-84
2023/07/28 00:29:41;;;;;;;15.73;6.63;;;15.60;99.90;;;;;;5068864;28;20131;-83
2023/07/28 00:32:07;;;;;;;156.82;12.38;;;15.60;99.90;;;;;;5054597;28;20048;-87
2023/07/28 00:34:33;;;;;;;14.98;6.38;;;15.70;99.90;;;;;;5055513;28;20397;-86
2023/07/28 00:36:58;;;;;;;34.60;8.82;;;15.70;99.90;;;;;;5054308;28;20036;-85
2023/07/28 00:39:24;;;;;;;42.15;8.80;;;15.70;99.90;;;;;;5061957;28;20037;-86
2023/07/28 00:41:50;;;;;;;39.00;7.15;;;15.70;99.90;;;;;;5061851;28;20033;-85
2023/07/28 00:44:17;;;;;;;29.95;7.78;;;15.70;99.90;;;;;;5055222;28;20060;-83
2023/07/28 00:46:44;;;;;;;69.75;8.32;;;15.70;99.90;;;;;;5069004;28;20036;-84
2023/07/28 00:49:10;;;;;;;16.67;6.97;;;15.70;99.90;;;;;;5069389;28;20040;-86
2023/07/28 00:51:36;;;;;;;41.03;8.02;;;15.70;99.90;;;;;;5054986;28;20032;-84
2023/07/28 00:54:05;;;;;;;97.40;10.82;;;15.70;99.90;;;;;;5071922;28;20036;-83
2023/07/28 00:56:31;;;;;;;51.75;6.95;;;15.70;99.90;;;;;;5053544;28;20058;-83
2023/07/28 00:58:57;;;;;;;55.53;7.68;;;15.70;99.90;;;;;;5063020;28;20116;-84
2023/07/28 01:01:23;;;;;;;36.53;6.13;;;15.70;99.90;;;;;;5068900;28;20103;-87
2023/07/28 01:03:51;;;;;;;42.42;6.63;;;15.70;99.90;;;;;;5055861;28;20063;-84
2023/07/28 01:06:22;;;;;;;15.98;4.93;;;15.70;99.90;;;;;;5059412;28;20094;-85
2023/07/28 01:09:05;;;;;;;16.52;6.25;;;15.70;99.90;;;;;;5053857;28;20607;-84
2023/07/28 01:11:31;;;;;;;22.70;6.30;;;15.70;99.90;;;;;;5071731;28;20029;-83
2023/07/28 01:13:57;;;;;;;6.07;5.32;;;15.70;99.90;;;;;;5068674;28;20366;-84
2023/07/28 01:16:23;;;;;;;82.60;8.88;;;15.70;99.90;;;;;;5036076;28;20044;-84
2023/07/28 01:18:49;;;;;;;116.38;11.15;;;15.70;99.90;;;;;;5067324;28;20059;-86
2023/07/28 01:21:24;;;;;;;163.85;11.35;;;15.70;99.90;;;;;;5073909;28;20024;-88
2023/07/28 01:24:13;;;;;;;58.40;7.10;;;15.70;99.90;;;;;;5037513;28;20135;-86
2023/07/28 01:26:39;;;;;;;68.80;8.60;;;15.70;99.90;;;;;;5068366;28;20307;-85
2023/07/28 01:29:06;;;;;;;141.75;10.85;;;15.70;99.90;;;;;;5057767;28;20043;-86
2023/07/28 01:31:32;;;;;;;18.38;4.55;;;15.70;99.90;;;;;;5053552;28;20393;-88
2023/07/28 01:33:58;;;;;;;45.88;6.80;;;15.60;99.90;;;;;;5049651;28;20515;-86
2023/07/28 01:36:24;;;;;;;5.43;4.20;;;15.60;99.90;;;;;;5063311;28;20029;-86
2023/07/28 01:38:50;;;;;;;5.18;4.40;;;15.60;99.90;;;;;;5071780;28;20128;-87
2023/07/28 01:41:16;;;;;;;118.38;11.75;;;15.60;99.90;;;;;;5035687;28;20067;-85
2023/07/28 01:43:41;;;;;;;63.83;6.32;;;15.60;99.90;;;;;;5038885;28;20037;-85
2023/07/28 01:46:07;;;;;;;62.63;5.93;;;15.70;99.90;;;;;;5054600;28;20025;-85
2023/07/28 01:48:33;;;;;;;5.30;2.83;;;15.60;99.90;;;;;;5075832;28;20054;-84
2023/07/28 01:50:59;;;;;;;20.35;4.40;;;15.60;99.90;;;;;;5074255;28;20036;-86
2023/07/28 01:53:25;;;;;;;2.88;2.28;;;15.60;99.90;;;;;;5040763;28;20089;-85
2023/07/28 01:55:50;;;;;;;66.20;4.88;;;15.60;99.90;;;;;;5052761;28;20032;-86
2023/07/28 01:58:16;;;;;;;16.50;3.30;;;15.60;99.90;;;;;;5026756;28;20068;-86
2023/07/28 02:00:42;;;;;;;53.28;4.40;;;15.60;99.90;;;;;;5078025;28;20028;-86
2023/07/28 02:03:08;;;;;;;87.85;5.15;;;15.60;99.90;;;;;;5059514;28;20035;-86
2023/07/28 02:05:34;;;;;;;185.15;9.48;;;15.60;99.90;;;;;;5054946;28;20119;-84
2023/07/28 02:08:00;;;;;;;80.43;5.90;;;15.60;99.90;;;;;;5071529;28;20029;-86
2023/07/28 02:10:29;;;;;;;4.00;2.25;;;15.60;99.90;;;;;;5036492;28;20078;-85
2023/07/28 02:12:55;;;;;;;90.95;6.88;;;15.60;99.90;;;;;;5076300;28;20036;-87
2023/07/28 02:15:21;;;;;;;30.27;2.65;;;15.60;99.90;;;;;;5066600;28;20025;-86
2023/07/28 02:17:47;;;;;;;13.75;2.00;;;15.60;99.90;;;;;;5064926;28;20063;-86
2023/07/28 02:20:15;;;;;;;52.63;4.97;;;15.60;99.90;;;;;;5088016;28;20024;-86
2023/07/28 02:22:44;;;;;;;19.85;2.00;;;15.60;99.90;;;;;;5080062;28;20032;-85
2023/07/28 02:25:10;;;;;;;123.35;6.90;;;15.60;99.90;;;;;;5070313;28;20036;-86
2023/07/28 02:27:37;;;;;;;114.18;6.05;;;15.60;99.90;;;;;;5088169;28;20038;-87
2023/07/28 02:30:04;;;;;;;91.30;5.32;;;15.60;99.90;;;;;;5070935;28;20485;-86
2023/07/28 02:32:31;;;;;;;23.70;3.65;;;15.60;99.90;;;;;;5082135;28;20135;-87
2023/07/28 02:34:57;;;;;;;51.20;3.50;;;15.60;99.90;;;;;;5088156;28;20033;-86
2023/07/28 02:37:23;;;;;;;23.48;2.75;;;15.60;99.90;;;;;;5077499;28;20036;-86
2023/07/28 02:39:48;;;;;;;17.33;2.03;;;15.60;99.90;;;;;;5053370;28;20037;-85
2023/07/28 02:42:14;;;;;;;56.17;4.05;;;15.60;99.90;;;;;;5066255;28;20040;-86
2023/07/28 02:44:40;;;;;;;9.02;1.45;;;15.60;99.90;;;;;;5055752;28;20106;-86
2023/07/28 02:47:06;;;;;;;140.00;7.05;;;15.60;99.90;;;;;;5082821;28;20032;-87
2023/07/28 02:49:33;;;;;;;68.13;4.07;;;15.60;99.90;;;;;;5061835;28;20254;-86
2023/07/28 02:51:59;;;;;;;72.35;4.47;;;15.60;99.90;;;;;;5061713;28;20063;-85
2023/07/28 02:54:25;;;;;;;48.92;3.83;;;15.60;99.90;;;;;;5050804;28;20041;-85
2023/07/28 02:56:51;;;;;;;52.60;3.88;;;15.60;99.90;;;;;;5057904;28;20039;-84
2023/07/28 02:59:17;;;;;;;2.58;1.70;;;15.50;99.90;;;;;;5076880;28;20028;-85
2023/07/28 03:01:43;;;;;;;40.33;3.88;;;15.60;99.90;;;;;;5084350;28;20043;-85
2023/07/28 03:04:12;;;;;;;9.88;1.73;;;15.60;99.90;;;;;;5060399;28;20028;-86
2023/07/28 03:07:17;;;;;;;2.28;1.35;;;15.60;99.90;;;;;;5087505;28;20024;-85
2023/07/28 03:09:46;;;;;;;88.60;5.03;;;15.50;99.90;;;;;;5083762;28;20056;-84
2023/07/28 03:12:13;;;;;;;19.25;2.20;;;15.50;99.90;;;;;;5067519;28;20060;-84
2023/07/28 03:14:38;;;;;;;33.80;3.03;;;15.50;99.90;;;;;;5035572;28;20063;-85
2023/07/28 03:17:04;;;;;;;3.90;1.30;;;15.50;99.90;;;;;;5040726;28;20040;-84
2023/07/28 03:19:30;;;;;;;107.50;4.40;;;15.50;99.90;;;;;;5077971;28;20024;-84
2023/07/28 03:21:56;;;;;;;14.10;1.90;;;15.50;99.90;;;;;;5038716;28;20024;-85
2023/07/28 03:24:21;;;;;;;26.80;1.92;;;15.40;99.90;;;;;;5042497;28;20034;-86
2023/07/28 03:26:47;;;;;;;35.35;2.90;;;15.50;99.90;;;;;;5061653;28;20033;-84
2023/07/28 03:29:13;;;;;;;64.50;3.13;;;15.50;99.90;;;;;;5067531;28;20101;-85
2023/07/28 03:31:39;;;;;;;29.38;3.05;;;15.60;99.90;;;;;;5082102;28;20386;-85
2023/07/28 03:34:05;;;;;;;11.50;1.73;;;15.60;99.90;;;;;;5086938;28;20385;-84
2023/07/28 03:36:31;;;;;;;15.18;1.73;;;15.60;99.90;;;;;;5065198;28;20115;-84
2023/07/28 03:38:57;;;;;;;12.70;1.70;;;15.60;99.90;;;;;;5051233;28;20032;-84
2023/07/28 03:41:23;;;;;;;22.92;2.58;;;15.60;99.90;;;;;;5047785;28;20035;-84
2023/07/28 03:43:49;;;;;;;18.25;2.50;;;15.60;99.90;;;;;;5081741;28;20027;-86
2023/07/28 03:46:15;;;;;;;35.10;3.60;;;15.60;99.90;;;;;;5067186;28;20032;-83
2023/07/28 03:48:41;;;;;;;27.33;3.88;;;15.60;99.90;;;;;;5067285;28;20063;-84
2023/07/28 03:51:07;;;;;;;7.57;2.72;;;15.60;99.90;;;;;;5058174;28;20033;-83
2023/07/28 03:53:35;;;;;;;115.65;7.47;;;15.60;99.90;;;;;;5068059;28;20472;-82
2023/07/28 03:56:01;;;;;;;13.80;3.70;;;15.60;99.90;;;;;;5038678;28;20528;-84
2023/07/28 03:58:27;;;;;;;90.05;8.00;;;15.60;99.90;;;;;;5078379;28;20036;-84
2023/07/28 04:00:53;;;;;;;139.00;8.38;;;15.70;99.90;;;;;;5039399;28;20035;-83
2023/07/28 04:03:19;;;;;;;132.90;8.00;;;15.70;99.90;;;;;;5039095;28;20033;-85
2023/07/28 04:05:45;;;;;;;141.77;9.98;;;15.70;99.90;;;;;;5073568;28;20016;-84
2023/07/28 04:08:11;;;;;;;158.30;10.55;;;15.70;99.90;;;;;;5037675;28;20726;-84
2023/07/28 04:10:37;;;;;;;16.70;3.70;;;15.70;99.90;;;;;;5053509;28;20020;-84
2023/07/28 04:13:02;;;;;;;156.30;12.85;;;15.70;99.90;;;;;;5070001;28;20594;-83
2023/07/28 04:15:28;;;;;;;9.40;3.70;;;15.70;99.90;;;;;;5045668;28;20436;-84
2023/07/28 04:17:54;;;;;;;54.95;6.03;;;15.70;99.90;;;;;;5078871;28;20480;-85
2023/07/28 04:20:20;;;;;;;156.93;10.65;;;15.80;99.90;;;;;;5066632;28;20036;-84
2023/07/28 04:22:46;;;;;;;23.27;4.15;;;15.80;99.90;;;;;;5084844;28;20017;-84
2023/07/28 04:25:12;;;;;;;26.55;4.53;;;15.80;99.90;;;;;;5067305;28;20033;-84
2023/07/28 04:27:42;;;;;;;175.93;11.65;;;15.80;99.90;;;;;;5047531;28;20099;-86
2023/07/28 04:30:08;;;;;;;17.17;4.00;;;15.80;99.90;;;;;;5091505;28;20036;-86
2023/07/28 04:32:37;;;;;;;66.45;7.03;;;15.80;99.90;;;;;;5087529;28;20053;-86
2023/07/28 04:35:10;;;;;;;6.75;3.10;;;15.80;99.90;;;;;;5072059;28;20036;-86
2023/07/28 04:37:43;;;;;;;69.90;7.25;;;15.90;99.90;;;;;;5044593;28;20029;-85
2023/07/28 04:40:12;;;;;;;57.38;5.68;;;15.80;99.90;;;;;;5040111;28;20037;-85
2023/07/28 04:42:38;;;;;;;37.13;3.88;;;15.80;99.90;;;;;;5057576;28;20175;-86
2023/07/28 04:45:06;;;;;;;11.30;3.13;;;15.80;99.90;;;;;;5049829;28;20029;-86
2023/07/28 04:47:32;;;;;;;6.18;2.80;;;15.90;99.90;;;;;;5059175;28;20044;-85
2023/07/28 04:49:58;;;;;;;49.67;4.53;;;15.90;99.90;;;;;;5061160;28;20105;-84
2023/07/28 04:52:42;;;;;;;119.95;7.97;;;15.90;99.90;;;;;;5053637;28;20050;-85
2023/07/28 04:55:30;;;;;;;108.00;8.75;;;15.90;99.90;;;;;;5061708;28;20033;-85
2023/07/28 04:57:56;;;;;;;108.35;6.90;;;15.90;99.90;;;;;;5064660;28;20044;-83
2023/07/28 05:00:24;;;;;;;159.85;9.50;;;15.90;99.90;;;;;;5074894;28;20145;-85
2023/07/28 05:02:49;;;;;;;55.20;4.85;;;15.90;99.90;;;;;;5071977;28;20077;-85
2023/07/28 05:05:16;;;;;;;1.90;1.80;;;15.90;99.90;;;;;;5063699;28;20033;-84
2023/07/28 05:07:42;;;;;;;3.58;2.00;;;15.90;99.90;;;;;;5053687;28;20028;-85
2023/07/28 05:10:12;;;;;;;60.70;4.97;;;15.90;99.90;;;;;;5070524;28;20031;-85
2023/07/28 05:12:38;;;;;;;45.20;3.97;;;15.80;99.90;;;;;;5066551;28;20601;-84
2023/07/28 05:15:05;;;;;;;191.20;9.93;;;15.80;99.90;;;;;;5056319;28;20032;-84
2023/07/28 05:17:32;;;;;;;23.35;2.60;;;15.90;99.90;;;;;;5050450;28;20044;-83
2023/07/28 05:20:30;;;;;;;71.60;5.38;;;15.90;99.90;;;;;;5065989;28;20041;-83
2023/07/28 05:23:06;;;;;;;62.70;4.75;;;15.80;99.90;;;;;;5053398;28;20079;-85
2023/07/28 05:25:32;;;;;;;83.85;5.65;;;15.90;99.90;;;;;;5058935;28;20032;-86
2023/07/28 05:27:58;;;;;;;72.40;4.55;;;15.90;99.90;;;;;;5071678;28;20035;-85
2023/07/28 05:30:25;;;;;;;28.58;2.97;;;15.90;99.90;;;;;;5030083;28;20109;-83
2023/07/28 05:32:50;;;;;;;48.10;3.85;;;15.90;99.90;;;;;;5069483;28;20516;-84
2023/07/28 05:35:27;;;;;;;81.10;4.90;;;15.90;99.90;;;;;;5059259;28;20024;-84
2023/07/28 05:37:54;;;;;;;52.08;3.15;;;16.00;99.90;;;;;;5042286;28;20043;-84
2023/07/28 05:40:20;;;;;;;104.03;6.95;;;16.00;99.90;;;;;;5057953;28;20020;-83
2023/07/28 05:42:46;;;;;;;113.03;5.97;;;16.00;99.90;;;;;;5058447;28;20517;-84
2023/07/28 05:45:12;;;;;;;121.80;7.05;;;16.00;99.90;;;;;;5039334;28;20025;-83
2023/07/28 05:47:38;;;;;;;168.35;7.70;;;16.00;99.90;;;;;;5078265;28;20119;-85
2023/07/28 05:50:05;;;;;;;82.85;5.00;;;16.00;99.90;;;;;;5050092;28;20024;-86
2023/07/28 05:52:31;;;;;;;64.35;4.38;;;16.00;99.90;;;;;;5068655;28;20024;-84
2023/07/28 05:54:57;;;;;;;16.80;2.00;;;16.00;99.90;;;;;;5057162;28;20040;-83
2023/07/28 05:57:23;;;;;;;15.02;1.77;;;16.00;99.90;;;;;;5069557;28;20067;-86
2023/07/28 05:59:49;;;;;;;15.48;1.58;;;16.00;99.90;;;;;;5067974;28;20115;-85
2023/07/28 06:02:15;;;;;;;75.43;5.53;;;16.00;99.90;;;;;;5058172;28;20062;-84
2023/07/28 06:04:59;;;;;;;112.80;5.07;;;16.00;99.90;;;;;;5065525;28;20028;-83
2023/07/28 06:07:26;;;;;;;49.90;3.17;;;16.10;99.90;;;;;;5060543;28;20122;-84
2023/07/28 06:09:52;;;;;;;67.63;4.60;;;16.10;99.90;;;;;;5069970;28;20025;-86
2023/07/28 06:12:18;;;;;;;98.80;5.60;;;16.10;99.90;;;;;;5027370;28;20112;-84
2023/07/28 06:14:44;;;;;;;70.40;5.32;;;16.20;99.90;;;;;;5062252;28;20044;-86
2023/07/28 06:17:11;;;;;;;95.78;4.93;;;16.20;99.90;;;;;;5058662;28;20055;-86
2023/07/28 06:19:36;;;;;;;77.85;6.53;;;16.20;99.90;;;;;;5064014;28;20481;-83
2023/07/28 06:22:02;;;;;;;68.70;5.15;;;16.20;99.90;;;;;;5056069;28;20501;-85
2023/07/28 06:24:30;;;;;;;72.93;4.80;;;16.20;99.90;;;;;;5051553;28;20516;-85
2023/07/28 06:26:59;;;;;;;58.35;3.95;;;16.20;99.90;;;;;;5073857;28;20024;-84
2023/07/28 06:29:25;;;;;;;23.73;2.55;;;16.30;99.90;;;;;;5055887;28;20036;-84
2023/07/28 06:31:50;;;;;;;3.75;1.30;;;16.30;99.90;;;;;;5070094;28;20032;-84
2023/07/28 06:34:16;;;;;;;41.45;3.30;;;16.40;99.90;;;;;;5012946;28;20028;-84
2023/07/28 06:36:42;;;;;;;58.35;3.80;;;16.40;99.90;;;;;;5034847;28;20051;-84
2023/07/28 06:39:08;;;;;;;93.75;5.13;;;16.40;99.90;;;;;;5050405;28;20094;-84
2023/07/28 06:41:34;;;;;;;22.73;2.50;;;16.40;99.90;;;;;;5049886;28;20029;-84
2023/07/28 06:44:00;;;;;;;101.72;5.70;;;16.40;99.90;;;;;;5039761;28;20504;-85
2023/07/28 06:46:28;;;;;;;60.05;4.05;;;16.40;99.90;;;;;;5064411;28;20040;-83
2023/07/28 06:48:53;;;;;;;61.95;4.15;;;16.50;99.90;;;;;;5062478;28;20032;-85
2023/07/28 06:51:19;;;;;;;6.57;1.00;;;16.50;99.90;;;;;;5066927;28;20459;-85
2023/07/28 06:53:45;;;;;;;33.85;2.47;;;16.50;99.90;;;;;;5076893;28;20032;-84
2023/07/28 06:56:11;;;;;;;107.90;6.13;;;16.50;99.90;;;;;;5064481;28;20060;-83
2023/07/28 06:58:37;;;;;;;105.35;5.10;;;16.50;99.90;;;;;;5036663;28;20045;-84
2023/07/28 07:01:02;;;;;;;33.65;1.98;;;16.50;99.90;;;;;;5061861;28;20182;-85
2023/07/28 07:03:28;;;;;;;73.30;3.38;;;16.50;99.90;;;;;;5063561;28;20052;-86
2023/07/28 07:05:54;;;;;;;48.90;2.42;;;16.50;99.90;;;;;;5044540;28;20025;-84
2023/07/28 07:08:20;;;;;;;123.00;5.90;;;16.50;99.90;;;;;;5063195;28;20095;-86
2023/07/28 07:10:50;;;;;;;19.15;1.52;;;16.50;99.90;;;;;;5048912;28;20025;-85
2023/07/28 07:13:16;;;;;;;1.35;0.75;;;16.60;99.90;;;;;;5056972;28;20043;-84
2023/07/28 07:15:42;;;;;;;88.18;5.22;;;16.60;99.90;;;;;;5074294;28;20012;-84
2023/07/28 07:18:07;;;;;;;47.45;3.03;;;16.70;99.90;;;;;;5064060;28;20029;-84
2023/07/28 07:20:38;;;;;;;13.70;1.60;;;16.70;99.90;;;;;;5059275;28;20108;-84
2023/07/28 07:23:04;;;;;;;24.15;2.13;;;16.70;99.90;;;;;;5043603;28;20040;-85
2023/07/28 07:25:30;;;;;;;5.05;1.05;;;16.70;99.90;;;;;;5053317;28;20025;-86
2023/07/28 07:27:56;;;;;;;6.45;1.02;;;16.70;99.90;;;;;;5042292;28;20033;-85
2023/07/28 07:30:22;;;;;;;4.82;1.05;;;16.70;99.90;;;;;;5046824;28;20036;-85
2023/07/28 07:32:48;;;;;;;6.10;1.15;;;16.80;99.90;;;;;;5047429;28;20039;-86
2023/07/28 07:35:14;;;;;;;3.67;1.20;;;16.80;99.90;;;;;;5068205;28;20119;-86
2023/07/28 07:37:40;;;;;;;4.88;1.30;;;16.80;99.90;;;;;;5026794;28;20151;-85
2023/07/28 07:40:08;;;;;;;4.13;1.30;;;16.80;99.90;;;;;;5036487;28;20044;-85
2023/07/28 07:42:47;;;;;;;41.67;3.28;;;16.90;99.90;;;;;;5052791;28;20028;-85
2023/07/28 07:45:14;;;;;;;5.15;1.33;;;17.00;99.90;;;;;;5059538;28;20012;-85
2023/07/28 07:47:41;;;;;;;27.17;2.47;;;17.00;99.90;;;;;;5050819;28;20035;-86
2023/07/28 07:50:12;;;;;;;83.20;6.05;;;17.10;99.90;;;;;;5045900;28;20074;-86
2023/07/28 07:52:39;;;;;;;38.22;2.55;;;17.20;99.90;;;;;;5050311;28;20120;-85
2023/07/28 07:55:05;;;;;;;10.55;1.45;;;17.30;99.90;;;;;;5057163;28;20078;-86
2023/07/28 07:57:31;;;;;;;1.05;0.98;;;17.30;99.90;;;;;;5058041;28;20032;-87
2023/07/28 08:00:00;;;;;;;12.05;1.70;;;17.40;99.90;;;;;;5049438;28;20040;-86
2023/07/28 08:02:26;;;;;;;4.60;1.40;;;17.50;99.90;;;;;;5030454;28;20028;-86
2023/07/28 08:04:53;;;;;;;1.90;1.00;;;17.50;99.90;;;;;;5061850;28;20042;-85
2023/07/28 08:07:19;;;;;;;2.60;1.20;;;17.60;99.90;;;;;;5035317;28;20037;-86
2023/07/28 08:09:45;;;;;;;2.97;1.38;;;17.60;99.90;;;;;;5069125;28;20036;-85
2023/07/28 08:12:12;;;;;;;1.90;0.98;;;17.70;99.90;;;;;;5061396;28;20029;-83
2023/07/28 08:14:38;;;;;;;36.40;2.42;;;17.70;99.90;;;;;;5049893;28;20111;-82
2023/07/28 08:17:04;;;;;;;2.28;0.88;;;17.80;99.90;;;;;;5058407;28;20060;-81
2023/07/28 08:19:29;;;;;;;20.88;2.13;;;17.80;99.90;;;;;;5057671;28;20037;-82
2023/07/28 08:21:56;;;;;;;22.77;2.03;;;17.80;99.90;;;;;;5058874;28;20046;-84
2023/07/28 08:24:22;;;;;;;0.90;0.90;;;17.80;99.90;;;;;;5047606;28;20480;-84
2023/07/28 08:26:48;;;;;;;2.88;1.15;;;17.80;99.90;;;;;;5045313;28;20139;-84
2023/07/28 08:29:15;;;;;;;2.00;1.90;;;17.80;99.90;;;;;;5054680;28;20045;-84
2023/07/28 08:31:41;;;;;;;1.50;1.40;;;17.80;99.90;;;;;;5063132;28;20127;-82
2023/07/28 08:34:08;;;;;;;3.33;1.35;;;17.80;99.90;;;;;;5068174;28;20111;-82
2023/07/28 08:36:34;;;;;;;2.40;1.00;;;17.80;99.90;;;;;;5074217;28;20024;-83
2023/07/28 08:39:00;;;;;;;1.20;1.20;;;17.70;99.90;;;;;;5053918;28;20060;-84
2023/07/28 08:41:25;;;;;;;1.60;1.50;;;17.70;99.90;;;;;;5062953;28;20047;-85
2023/07/28 08:43:53;;;;;;;1.10;1.00;;;17.70;99.90;;;;;;5020493;28;20067;-82
2023/07/28 08:46:20;;;;;;;3.15;1.33;;;17.70;99.90;;;;;;5072513;28;20021;-82
2023/07/28 08:48:46;;;;;;;1.35;1.13;;;17.60;99.90;;;;;;5069247;28;20024;-84
2023/07/28 08:51:15;;;;;;;21.75;2.25;;;17.50;99.90;;;;;;5054370;28;20089;-85
2023/07/28 08:53:41;;;;;;;12.00;1.88;;;17.60;99.90;;;;;;5061612;28;20485;-84
2023/07/28 08:56:06;;;;;;;1.70;1.60;;;17.60;99.90;;;;;;5069382;28;20036;-83
2023/07/28 08:58:33;;;;;;;1.58;1.48;;;17.60;99.90;;;;;;5025324;28;20493;-82
2023/07/28 09:01:02;;;;;;;1.70;1.60;;;17.70;99.90;;;;;;5047768;28;20031;-83
2023/07/28 09:03:29;;;;;;;2.33;2.08;;;17.80;99.90;;;;;;5072863;28;20059;-84
2023/07/28 09:06:02;;;;;;;2.65;1.70;;;17.90;99.90;;;;;;5080570;28;20055;-83
2023/07/28 09:08:31;;;;;;;1.73;1.58;;;17.90;99.90;;;;;;5067745;28;20024;-83
2023/07/28 09:11:03;;;;;;;1.50;1.40;;;18.00;99.90;;;;;;5067583;28;20029;-83
2023/07/28 09:13:41;;;;;;;1.73;1.63;;;17.90;99.90;;;;;;5058711;28;20032;-85
2023/07/28 09:16:17;;;;;;;1.58;1.42;;;18.00;99.90;;;;;;5081006;28;20493;-83
2023/07/28 09:18:43;;;;;;;1.60;1.50;;;18.00;99.90;;;;;;5068886;28;20127;-83
2023/07/28 09:21:21;;;;;;;1.73;1.63;;;18.10;99.90;;;;;;5056044;28;20052;-84
2023/07/28 09:23:48;;;;;;;2.10;1.90;;;18.10;99.90;;;;;;5073372;28;20048;-83
2023/07/28 09:26:15;;;;;;;15.43;2.65;;;18.10;99.90;;;;;;5067803;28;20059;-83
2023/07/28 09:28:41;;;;;;;2.05;1.88;;;18.20;99.90;;;;;;5064429;28;20035;-83
2023/07/28 09:31:08;;;;;;;1.52;1.42;;;18.30;99.90;;;;;;5083262;28;20060;-83
2023/07/28 09:33:35;;;;;;;1.50;1.40;;;18.40;99.90;;;;;;5075135;28;20039;-84
2023/07/28 09:36:12;;;;;;;2.13;1.42;;;18.50;99.90;;;;;;5075259;28;20040;-82
2023/07/28 09:38:42;;;;;;;1.95;1.08;;;18.60;99.90;;;;;;5079112;28;20028;-83
2023/07/28 09:41:11;;;;;;;2.85;1.40;;;18.60;99.90;;;;;;5075758;28;20036;-81
2023/07/28 09:43:40;;;;;;;1.63;1.17;;;18.70;99.90;;;;;;5079383;28;20028;-82
2023/07/28 09:46:09;;;;;;;1.10;1.10;;;18.80;99.90;;;;;;5074542;28;20039;-82
2023/07/28 09:48:38;;;;;;;1.40;1.30;;;19.00;99.90;;;;;;5055140;28;20051;-82
2023/07/28 09:51:10;;;;;;;1.38;1.10;;;19.00;99.90;;;;;;5072568;28;20630;-83
2023/07/28 09:53:41;;;;;;;1.17;1.10;;;19.10;99.90;;;;;;5086877;28;20059;-83
2023/07/28 09:56:09;;;;;;;1.02;1.02;;;19.10;99.90;;;;;;5073269;28;20065;-83
2023/07/28 09:58:41;;;;;;;1.33;1.23;;;19.10;99.90;;;;;;5063477;28;20127;-82
2023/07/28 10:01:08;;;;;;;0.88;0.88;;;19.20;99.90;;;;;;5057582;28;20028;-82
2023/07/28 10:03:34;;;;;;;1.20;1.20;;;19.20;99.90;;;;;;5075932;28;20032;-82
2023/07/28 10:05:59;;;;;;;1.13;1.10;;;19.20;99.90;;;;;;5079686;28;20543;-83
2023/07/28 10:08:26;;;;;;;1.40;1.30;;;19.20;99.90;;;;;;5065275;28;20249;-84
2023/07/28 10:10:52;;;;;;;4.10;1.33;;;19.30;99.90;;;;;;5066111;28;20029;-84
2023/07/28 10:13:22;;;;;;;2.72;1.83;;;19.40;99.90;;;;;;5083756;28;20032;-84
2023/07/28 10:15:49;;;;;;;2.05;1.95;;;19.50;99.90;;;;;;5082549;28;20090;-84
2023/07/28 10:18:15;;;;;;;1.80;1.70;;;19.70;99.90;;;;;;5093909;28;20691;-83
2023/07/28 10:20:43;;;;;;;1.70;1.60;;;19.80;99.90;;;;;;5087248;28;20077;-85
2023/07/28 10:23:16;;;;;;;2.65;2.35;;;19.90;99.90;;;;;;5085130;28;20453;-85
2023/07/28 10:25:44;;;;;;;2.30;2.10;;;19.90;99.90;;;;;;5078320;28;20393;-84
2023/07/28 10:28:32;;;;;;;1.75;1.65;;;20.00;99.90;;;;;;5073173;28;20037;-84
2023/07/28 10:30:59;;;;;;;1.63;1.52;;;20.10;99.90;;;;;;5073972;28;20032;-82
2023/07/28 10:33:30;;;;;;;1.60;1.50;;;20.10;99.90;;;;;;5083322;28;20032;-85
2023/07/28 10:35:58;;;;;;;1.40;1.30;;;20.10;99.90;;;;;;5077703;28;20025;-85
2023/07/28 10:38:36;;;;;;;1.55;1.45;;;20.00;99.90;;;;;;5075190;28;20033;-82
2023/07/28 10:41:13;;;;;;;2.13;1.42;;;19.90;99.90;;;;;;5073366;28;20155;-84
2023/07/28 10:43:39;;;;;;;1.60;1.13;;;19.80;99.90;;;;;;5078332;28;20039;-83
2023/07/28 10:46:08;;;;;;;1.67;1.58;;;19.70;99.90;;;;;;5075372;28;20616;-83
2023/07/28 10:48:41;;;;;;;1.80;1.70;;;19.70;99.90;;;;;;5081234;28;20056;-83
2023/07/28 10:51:07;;;;;;;1.85;1.48;;;19.80;99.90;;;;;;5070439;28;20039;-83
2023/07/28 10:53:33;;;;;;;2.97;1.17;;;19.80;99.90;;;;;;5092095;28;20028;-84
2023/07/28 10:56:02;;;;;;;1.48;1.42;;;19.90;99.90;;;;;;5074563;28;20081;-85
2023/07/28 10:58:46;;;;;;;1.67;1.58;;;20.00;99.90;;;;;;5061109;28;20048;-82
2023/07/28 11:01:11;;;;;;;1.65;1.55;;;20.00;99.90;;;;;;5082863;28;20021;-83
2023/07/28 11:03:39;;;;;;;1.77;1.67;;;20.10;99.90;;;;;;5089524;28;20028;-84
2023/07/28 11:06:06;;;;;;;1.80;1.70;;;20.10;99.90;;;;;;5085524;28;20071;-83
2023/07/28 11:08:32;;;;;;;1.40;1.35;;;20.00;99.90;;;;;;5064111;28;20028;-82
2023/07/28 11:10:58;;;;;;;2.45;1.30;;;20.00;99.90;;;;;;5072982;28;20556;-83
2023/07/28 11:13:25;;;;;;;1.80;1.70;;;20.00;99.90;;;;;;5084555;28;20032;-81
2023/07/28 11:15:51;;;;;;;1.92;1.83;;;20.00;99.90;;;;;;5087269;28;20029;-84
2023/07/28 11:18:17;;;;;;;2.28;1.95;;;20.00;99.90;;;;;;5066009;28;20063;-84
2023/07/28 11:20:44;;;;;;;1.80;1.70;;;20.10;99.90;;;;;;5070308;28;20020;-82
2023/07/28 11:23:13;;;;;;;3.35;1.83;;;20.30;99.90;;;;;;5076946;28;20032;-84
2023/07/28 11:25:41;;;;;;;1.80;1.70;;;20.40;99.90;;;;;;5064251;28;20028;-85
2023/07/28 11:28:08;;;;;;;2.08;1.98;;;20.50;99.90;;;;;;5067874;28;20027;-83
2023/07/28 11:30:38;;;;;;;1.88;1.77;;;20.60;99.90;;;;;;5061241;28;20039;-84
2023/07/28 11:33:04;;;;;;;1.75;1.20;;;20.60;99.90;;;;;;5081772;28;20104;-85
2023/07/28 11:35:30;;;;;;;1.55;1.48;;;20.70;99.90;;;;;;5075696;28;20056;-82
2023/07/28 11:37:56;;;;;;;1.25;1.25;;;20.70;99.90;;;;;;5025195;28;20424;-83
2023/07/28 11:40:22;;;;;;;1.60;1.50;;;20.60;99.90;;;;;;5059911;28;20028;-81
2023/07/28 11:42:52;;;;;;;1.60;1.50;;;20.50;99.90;;;;;;5076031;28;20392;-84
2023/07/28 11:45:19;;;;;;;2.08;1.30;;;20.50;99.90;;;;;;5078355;28;20044;-84
2023/07/28 11:48:00;;;;;;;1.30;1.20;;;20.40;99.90;;;;;;5067783;28;20020;-83
2023/07/28 11:50:27;;;;;;;3.40;1.35;;;20.40;99.90;;;;;;5063758;28;20025;-83
2023/07/28 11:52:54;;;;;;;0.88;0.88;;;20.40;99.90;;;;;;5068420;28;20051;-84
2023/07/28 11:55:21;;;;;;;2.45;1.30;;;20.40;99.90;;;;;;5062541;28;20029;-84
2023/07/28 11:57:51;;;;;;;1.75;1.20;;;20.30;99.90;;;;;;5078984;28;20033;-84
2023/07/28 12:00:17;;;;;;;1.50;1.40;;;20.20;99.90;;;;;;5075110;28;20396;-83
2023/07/28 12:02:44;;;;;;;2.08;1.10;;;20.10;99.90;;;;;;5050887;28;20108;-82
2023/07/28 12:05:15;;;;;;;2.95;1.92;;;20.10;99.90;;;;;;5066159;28;20055;-83
2023/07/28 12:07:40;;;;;;;3.20;2.05;;;20.20;99.90;;;;;;5065593;28;20044;-84
2023/07/28 12:10:09;;;;;;;2.55;1.60;;;20.30;99.90;;;;;;5063755;28;20028;-83
2023/07/28 12:12:46;;;;;;;1.52;1.42;;;20.40;99.90;;;;;;5072278;28;20056;-83
2023/07/28 12:15:29;;;;;;;1.45;1.35;;;20.50;99.90;;;;;;5074355;28;20033;-82
2023/07/28 12:18:05;;;;;;;4.22;1.58;;;20.70;99.90;;;;;;5080231;28;20564;-85
2023/07/28 12:20:48;;;;;;;1.42;1.33;;;20.90;99.90;;;;;;5071462;28;20028;-83
2023/07/28 12:23:16;;;;;;;2.58;1.40;;;21.10;99.90;;;;;;5070684;28;20059;-84
2023/07/28 12:25:42;;;;;;;1.83;1.50;;;21.20;99.90;;;;;;5080089;28;20423;-85
2023/07/28 12:28:08;;;;;;;1.10;1.10;;;21.40;99.90;;;;;;5039386;28;20037;-83
2023/07/28 12:30:37;;;;;;;1.40;1.30;;;21.50;99.90;;;;;;5076286;28;20024;-84
2023/07/28 12:33:06;;;;;;;1.70;1.60;;;21.50;99.90;;;;;;5078655;28;20561;-85
2023/07/28 12:35:34;;;;;;;1.38;1.27;;;21.30;99.90;;;;;;5055041;28;20066;-85
2023/07/28 12:38:00;;;;;;;1.55;1.45;;;21.40;99.90;;;;;;5085406;28;20045;-84
2023/07/28 12:40:30;;;;;;;1.75;1.42;;;21.50;99.90;;;;;;5079736;28;20119;-85
2023/07/28 12:42:58;;;;;;;1.73;1.30;;;21.70;99.90;;;;;;5076313;28;20074;-84